sensor_id;sensor_type;location;lat;lon;timestamp;P1;durP1;ratioP1;P2;durP2;ratioP2
45618;SDS011;31343;47.520;19.144;2024-03-06T00:00:47;8.05;;;5.85;;
45618;SDS011;31343;47.520;19.144;2024-03-06T00:03:13;9.98;;;5.00;;
45618;SDS011;31343;47.520;19.144;2024-03-06T00:05:39;7.57;;;6.38;;
45618;SDS011;31343;47.520;19.144;2024-03-06T00:08:05;11.90;;;6.13;;
45618;SDS011;31343;47.520;19.144;2024-03-06T00:10:31;12.80;;;7.15;;
45618;SDS011;31343;47.520;19.144;2024-03-06T00:12:57;11.48;;;6.50;;
45618;SDS011;31343;47.520;19.144;2024-03-06T00:15:22;9.73;;;4.90;;
45618;SDS011;31343;47.520;19.144;2024-03-06T00:17:48;8.02;;;5.00;;
45618;SDS011;31343;47.520;19.144;2024-03-06T00:20:14;8.18;;;4.32;;
45618;SDS011;31343;47.520;19.144;2024-03-06T00:22:40;6.40;;;5.03;;
45618;SDS011;31343;47.520;19.144;2024-03-06T00:25:05;11.43;;;5.05;;
45618;SDS011;31343;47.520;19.144;2024-03-06T00:27:33;16.88;;;6.00;;
45618;SDS011;31343;47.520;19.144;2024-03-06T00:29:59;8.40;;;6.15;;
45618;SDS011;31343;47.520;19.144;2024-03-06T00:32:24;10.57;;;7.05;;
45618;SDS011;31343;47.520;19.144;2024-03-06T00:34:50;8.98;;;5.80;;
45618;SDS011;31343;47.520;19.144;2024-03-06T00:37:16;5.70;;;3.92;;
45618;SDS011;31343;47.520;19.144;2024-03-06T00:39:42;7.88;;;6.10;;
45618;SDS011;31343;47.520;19.144;2024-03-06T00:42:08;8.90;;;4.90;;
45618;SDS011;31343;47.520;19.144;2024-03-06T00:44:35;8.55;;;4.70;;
45618;SDS011;31343;47.520;19.144;2024-03-06T00:47:00;11.68;;;5.45;;
45618;SDS011;31343;47.520;19.144;2024-03-06T00:49:26;8.90;;;5.22;;
45618;SDS011;31343;47.520;19.144;2024-03-06T00:51:52;8.05;;;5.47;;
45618;SDS011;31343;47.520;19.144;2024-03-06T00:54:17;10.65;;;5.65;;
45618;SDS011;31343;47.520;19.144;2024-03-06T00:56:43;7.85;;;4.95;;
45618;SDS011;31343;47.520;19.144;2024-03-06T00:59:09;10.73;;;5.80;;
45618;SDS011;31343;47.520;19.144;2024-03-06T01:01:35;9.43;;;5.47;;
45618;SDS011;31343;47.520;19.144;2024-03-06T01:04:01;8.77;;;5.10;;
45618;SDS011;31343;47.520;19.144;2024-03-06T01:06:27;12.95;;;5.55;;
45618;SDS011;31343;47.520;19.144;2024-03-06T01:08:53;9.73;;;5.80;;
45618;SDS011;31343;47.520;19.144;2024-03-06T01:11:19;8.27;;;5.45;;
45618;SDS011;31343;47.520;19.144;2024-03-06T01:13:45;7.22;;;5.78;;
45618;SDS011;31343;47.520;19.144;2024-03-06T01:16:10;10.32;;;5.30;;
45618;SDS011;31343;47.520;19.144;2024-03-06T01:18:36;8.38;;;6.28;;
45618;SDS011;31343;47.520;19.144;2024-03-06T01:21:02;14.63;;;6.72;;
45618;SDS011;31343;47.520;19.144;2024-03-06T01:23:28;9.52;;;5.93;;
45618;SDS011;31343;47.520;19.144;2024-03-06T01:25:54;10.52;;;4.95;;
45618;SDS011;31343;47.520;19.144;2024-03-06T01:28:19;10.73;;;6.20;;
45618;SDS011;31343;47.520;19.144;2024-03-06T01:30:45;7.75;;;4.40;;
45618;SDS011;31343;47.520;19.144;2024-03-06T01:33:11;12.75;;;7.22;;
45618;SDS011;31343;47.520;19.144;2024-03-06T01:35:37;7.32;;;4.72;;
45618;SDS011;31343;47.520;19.144;2024-03-06T01:38:03;7.07;;;4.43;;
45618;SDS011;31343;47.520;19.144;2024-03-06T01:40:29;11.38;;;5.50;;
45618;SDS011;31343;47.520;19.144;2024-03-06T01:42:55;8.65;;;6.28;;
45618;SDS011;31343;47.520;19.144;2024-03-06T01:45:21;9.02;;;4.50;;
45618;SDS011;31343;47.520;19.144;2024-03-06T01:47:46;10.52;;;5.45;;
45618;SDS011;31343;47.520;19.144;2024-03-06T01:50:12;9.48;;;4.88;;
45618;SDS011;31343;47.520;19.144;2024-03-06T01:52:40;9.18;;;5.43;;
45618;SDS011;31343;47.520;19.144;2024-03-06T01:55:07;8.88;;;5.57;;
45618;SDS011;31343;47.520;19.144;2024-03-06T01:57:34;8.55;;;5.63;;
45618;SDS011;31343;47.520;19.144;2024-03-06T02:00:01;6.80;;;5.45;;
45618;SDS011;31343;47.520;19.144;2024-03-06T02:02:28;10.95;;;6.80;;
45618;SDS011;31343;47.520;19.144;2024-03-06T02:04:54;8.52;;;4.45;;
45618;SDS011;31343;47.520;19.144;2024-03-06T02:07:20;12.63;;;7.05;;
45618;SDS011;31343;47.520;19.144;2024-03-06T02:09:46;10.13;;;4.30;;
45618;SDS011;31343;47.520;19.144;2024-03-06T02:12:13;10.57;;;4.72;;
45618;SDS011;31343;47.520;19.144;2024-03-06T02:14:39;9.80;;;5.60;;
45618;SDS011;31343;47.520;19.144;2024-03-06T02:17:05;9.20;;;5.38;;
45618;SDS011;31343;47.520;19.144;2024-03-06T02:19:41;9.00;;;5.93;;
45618;SDS011;31343;47.520;19.144;2024-03-06T02:22:09;6.20;;;4.63;;
45618;SDS011;31343;47.520;19.144;2024-03-06T02:24:35;6.32;;;3.67;;
45618;SDS011;31343;47.520;19.144;2024-03-06T02:27:02;7.05;;;4.75;;
45618;SDS011;31343;47.520;19.144;2024-03-06T02:29:30;8.52;;;5.25;;
45618;SDS011;31343;47.520;19.144;2024-03-06T02:31:59;10.98;;;6.25;;
45618;SDS011;31343;47.520;19.144;2024-03-06T02:34:27;10.90;;;5.68;;
45618;SDS011;31343;47.520;19.144;2024-03-06T02:36:54;11.57;;;5.28;;
45618;SDS011;31343;47.520;19.144;2024-03-06T02:39:19;16.27;;;7.85;;
45618;SDS011;31343;47.520;19.144;2024-03-06T02:41:46;7.22;;;3.90;;
45618;SDS011;31343;47.520;19.144;2024-03-06T02:44:12;10.10;;;5.63;;
45618;SDS011;31343;47.520;19.144;2024-03-06T02:46:38;8.10;;;5.28;;
45618;SDS011;31343;47.520;19.144;2024-03-06T02:49:04;10.20;;;5.85;;
45618;SDS011;31343;47.520;19.144;2024-03-06T02:51:31;9.63;;;5.20;;
45618;SDS011;31343;47.520;19.144;2024-03-06T02:53:56;9.05;;;5.35;;
45618;SDS011;31343;47.520;19.144;2024-03-06T02:56:22;10.95;;;5.35;;
45618;SDS011;31343;47.520;19.144;2024-03-06T02:58:48;7.38;;;4.43;;
45618;SDS011;31343;47.520;19.144;2024-03-06T03:01:13;9.90;;;5.38;;
45618;SDS011;31343;47.520;19.144;2024-03-06T03:03:42;10.02;;;6.53;;
45618;SDS011;31343;47.520;19.144;2024-03-06T03:06:09;10.68;;;4.93;;
45618;SDS011;31343;47.520;19.144;2024-03-06T03:08:36;5.47;;;4.35;;
45618;SDS011;31343;47.520;19.144;2024-03-06T03:11:02;9.13;;;5.43;;
45618;SDS011;31343;47.520;19.144;2024-03-06T03:13:28;9.82;;;5.68;;
45618;SDS011;31343;47.520;19.144;2024-03-06T03:15:55;7.05;;;3.80;;
45618;SDS011;31343;47.520;19.144;2024-03-06T03:18:21;8.05;;;6.07;;
45618;SDS011;31343;47.520;19.144;2024-03-06T03:20:46;7.40;;;4.47;;
45618;SDS011;31343;47.520;19.144;2024-03-06T03:23:12;9.93;;;4.65;;
45618;SDS011;31343;47.520;19.144;2024-03-06T03:25:40;11.25;;;6.57;;
45618;SDS011;31343;47.520;19.144;2024-03-06T03:28:06;10.95;;;6.03;;
45618;SDS011;31343;47.520;19.144;2024-03-06T03:30:32;7.03;;;5.15;;
45618;SDS011;31343;47.520;19.144;2024-03-06T03:32:58;11.40;;;4.72;;
45618;SDS011;31343;47.520;19.144;2024-03-06T03:35:23;11.38;;;5.45;;
45618;SDS011;31343;47.520;19.144;2024-03-06T03:37:52;9.88;;;4.30;;
45618;SDS011;31343;47.520;19.144;2024-03-06T03:40:18;6.93;;;4.53;;
45618;SDS011;31343;47.520;19.144;2024-03-06T03:42:44;9.15;;;5.82;;
45618;SDS011;31343;47.520;19.144;2024-03-06T03:45:09;7.75;;;5.82;;
45618;SDS011;31343;47.520;19.144;2024-03-06T03:47:37;12.35;;;6.47;;
45618;SDS011;31343;47.520;19.144;2024-03-06T03:50:02;8.90;;;4.97;;
45618;SDS011;31343;47.520;19.144;2024-03-06T03:52:29;7.10;;;5.30;;
45618;SDS011;31343;47.520;19.144;2024-03-06T03:54:54;10.90;;;6.30;;
45618;SDS011;31343;47.520;19.144;2024-03-06T03:57:20;6.10;;;4.22;;
45618;SDS011;31343;47.520;19.144;2024-03-06T03:59:46;8.90;;;4.57;;
45618;SDS011;31343;47.520;19.144;2024-03-06T04:02:12;6.43;;;5.28;;
45618;SDS011;31343;47.520;19.144;2024-03-06T04:04:37;6.25;;;3.53;;
45618;SDS011;31343;47.520;19.144;2024-03-06T04:07:03;10.10;;;5.68;;
45618;SDS011;31343;47.520;19.144;2024-03-06T04:09:30;8.82;;;5.07;;
45618;SDS011;31343;47.520;19.144;2024-03-06T04:12:00;10.00;;;6.45;;
45618;SDS011;31343;47.520;19.144;2024-03-06T04:14:26;7.30;;;4.85;;
45618;SDS011;31343;47.520;19.144;2024-03-06T04:16:51;6.15;;;3.33;;
45618;SDS011;31343;47.520;19.144;2024-03-06T04:19:17;5.03;;;3.08;;
45618;SDS011;31343;47.520;19.144;2024-03-06T04:21:43;7.30;;;4.93;;
45618;SDS011;31343;47.520;19.144;2024-03-06T04:24:09;7.60;;;4.47;;
45618;SDS011;31343;47.520;19.144;2024-03-06T04:26:35;10.32;;;4.82;;
45618;SDS011;31343;47.520;19.144;2024-03-06T04:29:01;10.98;;;5.80;;
45618;SDS011;31343;47.520;19.144;2024-03-06T04:31:28;7.63;;;5.30;;
45618;SDS011;31343;47.520;19.144;2024-03-06T04:33:53;10.90;;;4.53;;
45618;SDS011;31343;47.520;19.144;2024-03-06T04:36:19;8.90;;;5.60;;
45618;SDS011;31343;47.520;19.144;2024-03-06T04:38:44;7.68;;;5.32;;
45618;SDS011;31343;47.520;19.144;2024-03-06T04:41:10;8.60;;;4.60;;
45618;SDS011;31343;47.520;19.144;2024-03-06T04:43:36;8.75;;;5.20;;
45618;SDS011;31343;47.520;19.144;2024-03-06T04:46:02;7.68;;;3.97;;
45618;SDS011;31343;47.520;19.144;2024-03-06T04:48:29;7.35;;;5.43;;
45618;SDS011;31343;47.520;19.144;2024-03-06T04:50:54;11.88;;;5.22;;
45618;SDS011;31343;47.520;19.144;2024-03-06T04:53:20;11.45;;;5.25;;
45618;SDS011;31343;47.520;19.144;2024-03-06T04:55:46;9.05;;;5.18;;
45618;SDS011;31343;47.520;19.144;2024-03-06T04:58:12;5.82;;;3.90;;
45618;SDS011;31343;47.520;19.144;2024-03-06T05:00:38;7.75;;;5.38;;
45618;SDS011;31343;47.520;19.144;2024-03-06T05:03:04;10.35;;;5.50;;
45618;SDS011;31343;47.520;19.144;2024-03-06T05:05:30;10.00;;;4.75;;
45618;SDS011;31343;47.520;19.144;2024-03-06T05:07:57;8.40;;;5.18;;
45618;SDS011;31343;47.520;19.144;2024-03-06T05:10:23;9.48;;;4.57;;
45618;SDS011;31343;47.520;19.144;2024-03-06T05:12:48;12.32;;;7.80;;
45618;SDS011;31343;47.520;19.144;2024-03-06T05:15:15;10.15;;;5.80;;
45618;SDS011;31343;47.520;19.144;2024-03-06T05:17:41;8.77;;;5.18;;
45618;SDS011;31343;47.520;19.144;2024-03-06T05:20:07;7.10;;;3.90;;
45618;SDS011;31343;47.520;19.144;2024-03-06T05:22:33;10.65;;;3.90;;
45618;SDS011;31343;47.520;19.144;2024-03-06T05:24:59;5.18;;;4.22;;
45618;SDS011;31343;47.520;19.144;2024-03-06T05:27:24;6.43;;;3.75;;
45618;SDS011;31343;47.520;19.144;2024-03-06T05:29:51;7.72;;;5.00;;
45618;SDS011;31343;47.520;19.144;2024-03-06T05:32:17;9.05;;;4.38;;
45618;SDS011;31343;47.520;19.144;2024-03-06T05:34:42;6.97;;;4.20;;
45618;SDS011;31343;47.520;19.144;2024-03-06T05:37:09;6.45;;;4.88;;
45618;SDS011;31343;47.520;19.144;2024-03-06T05:39:35;7.60;;;6.55;;
45618;SDS011;31343;47.520;19.144;2024-03-06T05:42:03;8.57;;;6.13;;
45618;SDS011;31343;47.520;19.144;2024-03-06T05:44:32;8.40;;;5.45;;
45618;SDS011;31343;47.520;19.144;2024-03-06T05:46:58;10.50;;;5.18;;
45618;SDS011;31343;47.520;19.144;2024-03-06T05:49:26;13.05;;;5.03;;
45618;SDS011;31343;47.520;19.144;2024-03-06T05:51:51;8.27;;;3.95;;
45618;SDS011;31343;47.520;19.144;2024-03-06T05:54:18;6.50;;;5.93;;
45618;SDS011;31343;47.520;19.144;2024-03-06T05:56:44;7.88;;;4.85;;
45618;SDS011;31343;47.520;19.144;2024-03-06T05:59:12;8.40;;;5.22;;
45618;SDS011;31343;47.520;19.144;2024-03-06T06:01:38;9.70;;;5.10;;
45618;SDS011;31343;47.520;19.144;2024-03-06T06:04:03;11.55;;;5.72;;
45618;SDS011;31343;47.520;19.144;2024-03-06T06:06:29;9.02;;;6.72;;
45618;SDS011;31343;47.520;19.144;2024-03-06T06:08:55;12.05;;;7.00;;
45618;SDS011;31343;47.520;19.144;2024-03-06T06:11:20;12.63;;;6.75;;
45618;SDS011;31343;47.520;19.144;2024-03-06T06:13:46;8.95;;;4.80;;
45618;SDS011;31343;47.520;19.144;2024-03-06T06:16:12;9.90;;;5.25;;
45618;SDS011;31343;47.520;19.144;2024-03-06T06:18:39;9.63;;;6.70;;
45618;SDS011;31343;47.520;19.144;2024-03-06T06:21:07;10.55;;;5.22;;
45618;SDS011;31343;47.520;19.144;2024-03-06T06:23:33;12.60;;;6.82;;
45618;SDS011;31343;47.520;19.144;2024-03-06T06:25:59;12.02;;;6.32;;
45618;SDS011;31343;47.520;19.144;2024-03-06T06:28:25;13.73;;;7.18;;
45618;SDS011;31343;47.520;19.144;2024-03-06T06:30:50;10.90;;;6.65;;
45618;SDS011;31343;47.520;19.144;2024-03-06T06:33:19;15.65;;;5.90;;
45618;SDS011;31343;47.520;19.144;2024-03-06T06:35:46;9.18;;;6.43;;
45618;SDS011;31343;47.520;19.144;2024-03-06T06:38:12;12.77;;;5.85;;
45618;SDS011;31343;47.520;19.144;2024-03-06T06:40:37;13.05;;;6.13;;
45618;SDS011;31343;47.520;19.144;2024-03-06T06:43:03;10.05;;;6.15;;
45618;SDS011;31343;47.520;19.144;2024-03-06T06:45:29;9.40;;;6.47;;
45618;SDS011;31343;47.520;19.144;2024-03-06T06:47:54;14.75;;;7.25;;
45618;SDS011;31343;47.520;19.144;2024-03-06T06:50:20;9.63;;;5.70;;
45618;SDS011;31343;47.520;19.144;2024-03-06T06:52:51;11.27;;;5.45;;
45618;SDS011;31343;47.520;19.144;2024-03-06T06:55:16;9.80;;;3.95;;
45618;SDS011;31343;47.520;19.144;2024-03-06T06:57:42;8.45;;;4.95;;
45618;SDS011;31343;47.520;19.144;2024-03-06T07:00:09;11.35;;;6.88;;
45618;SDS011;31343;47.520;19.144;2024-03-06T07:02:38;10.55;;;5.53;;
45618;SDS011;31343;47.520;19.144;2024-03-06T07:05:05;8.82;;;4.82;;
45618;SDS011;31343;47.520;19.144;2024-03-06T07:07:31;7.13;;;4.45;;
45618;SDS011;31343;47.520;19.144;2024-03-06T07:09:56;7.05;;;5.07;;
45618;SDS011;31343;47.520;19.144;2024-03-06T07:12:22;12.60;;;5.85;;
45618;SDS011;31343;47.520;19.144;2024-03-06T07:14:48;6.93;;;4.25;;
45618;SDS011;31343;47.520;19.144;2024-03-06T07:17:14;9.85;;;6.38;;
45618;SDS011;31343;47.520;19.144;2024-03-06T07:19:39;10.10;;;5.93;;
45618;SDS011;31343;47.520;19.144;2024-03-06T07:22:05;8.05;;;5.57;;
45618;SDS011;31343;47.520;19.144;2024-03-06T07:24:31;10.05;;;5.88;;
45618;SDS011;31343;47.520;19.144;2024-03-06T07:26:56;6.85;;;4.82;;
45618;SDS011;31343;47.520;19.144;2024-03-06T07:29:22;8.38;;;4.80;;
45618;SDS011;31343;47.520;19.144;2024-03-06T07:31:48;10.88;;;7.13;;
45618;SDS011;31343;47.520;19.144;2024-03-06T07:34:13;7.63;;;4.80;;
45618;SDS011;31343;47.520;19.144;2024-03-06T07:36:39;10.05;;;6.10;;
45618;SDS011;31343;47.520;19.144;2024-03-06T07:39:06;10.90;;;7.00;;
45618;SDS011;31343;47.520;19.144;2024-03-06T07:41:32;10.20;;;4.78;;
45618;SDS011;31343;47.520;19.144;2024-03-06T07:43:59;10.43;;;5.22;;
45618;SDS011;31343;47.520;19.144;2024-03-06T07:46:25;10.10;;;5.22;;
45618;SDS011;31343;47.520;19.144;2024-03-06T07:48:51;7.90;;;4.13;;
45618;SDS011;31343;47.520;19.144;2024-03-06T07:51:17;7.03;;;5.07;;
45618;SDS011;31343;47.520;19.144;2024-03-06T07:53:42;9.18;;;5.50;;
45618;SDS011;31343;47.520;19.144;2024-03-06T07:56:11;9.68;;;5.50;;
45618;SDS011;31343;47.520;19.144;2024-03-06T07:58:37;7.07;;;4.32;;
45618;SDS011;31343;47.520;19.144;2024-03-06T08:01:03;7.85;;;5.10;;
45618;SDS011;31343;47.520;19.144;2024-03-06T08:03:29;7.78;;;4.68;;
45618;SDS011;31343;47.520;19.144;2024-03-06T08:05:54;6.15;;;4.10;;
45618;SDS011;31343;47.520;19.144;2024-03-06T08:08:21;6.45;;;4.13;;
45618;SDS011;31343;47.520;19.144;2024-03-06T08:10:47;8.38;;;5.53;;
45618;SDS011;31343;47.520;19.144;2024-03-06T08:13:13;8.50;;;5.10;;
45618;SDS011;31343;47.520;19.144;2024-03-06T08:15:39;8.82;;;4.35;;
45618;SDS011;31343;47.520;19.144;2024-03-06T08:18:05;9.60;;;4.65;;
45618;SDS011;31343;47.520;19.144;2024-03-06T08:20:31;7.07;;;4.50;;
45618;SDS011;31343;47.520;19.144;2024-03-06T08:22:58;7.75;;;3.80;;
45618;SDS011;31343;47.520;19.144;2024-03-06T08:25:24;7.82;;;4.28;;
45618;SDS011;31343;47.520;19.144;2024-03-06T08:27:49;8.85;;;6.10;;
45618;SDS011;31343;47.520;19.144;2024-03-06T08:30:15;7.93;;;4.82;;
45618;SDS011;31343;47.520;19.144;2024-03-06T08:32:41;4.30;;;3.72;;
45618;SDS011;31343;47.520;19.144;2024-03-06T08:35:09;6.40;;;4.32;;
45618;SDS011;31343;47.520;19.144;2024-03-06T08:37:39;7.57;;;4.20;;
45618;SDS011;31343;47.520;19.144;2024-03-06T08:40:05;6.68;;;3.70;;
45618;SDS011;31343;47.520;19.144;2024-03-06T08:42:42;7.53;;;4.05;;
45618;SDS011;31343;47.520;19.144;2024-03-06T08:45:08;8.85;;;4.50;;
45618;SDS011;31343;47.520;19.144;2024-03-06T08:47:35;7.18;;;3.35;;
45618;SDS011;31343;47.520;19.144;2024-03-06T08:50:01;5.53;;;3.70;;
45618;SDS011;31343;47.520;19.144;2024-03-06T08:52:28;6.30;;;3.97;;
45618;SDS011;31343;47.520;19.144;2024-03-06T08:54:54;8.30;;;4.32;;
45618;SDS011;31343;47.520;19.144;2024-03-06T08:57:20;4.97;;;3.63;;
45618;SDS011;31343;47.520;19.144;2024-03-06T08:59:47;5.75;;;3.15;;
45618;SDS011;31343;47.520;19.144;2024-03-06T09:02:13;6.13;;;3.95;;
45618;SDS011;31343;47.520;19.144;2024-03-06T09:04:41;4.20;;;2.90;;
45618;SDS011;31343;47.520;19.144;2024-03-06T09:07:07;5.28;;;3.28;;
45618;SDS011;31343;47.520;19.144;2024-03-06T09:09:34;8.20;;;4.15;;
45618;SDS011;31343;47.520;19.144;2024-03-06T09:12:00;6.25;;;3.50;;
45618;SDS011;31343;47.520;19.144;2024-03-06T09:14:26;4.93;;;3.13;;
45618;SDS011;31343;47.520;19.144;2024-03-06T09:16:52;4.72;;;3.55;;
45618;SDS011;31343;47.520;19.144;2024-03-06T09:19:17;7.05;;;4.95;;
45618;SDS011;31343;47.520;19.144;2024-03-06T09:21:43;4.95;;;3.20;;
45618;SDS011;31343;47.520;19.144;2024-03-06T09:24:08;4.57;;;3.60;;
45618;SDS011;31343;47.520;19.144;2024-03-06T09:26:34;5.53;;;4.22;;
45618;SDS011;31343;47.520;19.144;2024-03-06T09:29:00;6.07;;;2.72;;
45618;SDS011;31343;47.520;19.144;2024-03-06T09:31:26;5.15;;;3.25;;
45618;SDS011;31343;47.520;19.144;2024-03-06T09:33:52;6.32;;;3.67;;
45618;SDS011;31343;47.520;19.144;2024-03-06T09:36:18;5.53;;;3.03;;
45618;SDS011;31343;47.520;19.144;2024-03-06T09:38:44;5.68;;;3.13;;
45618;SDS011;31343;47.520;19.144;2024-03-06T09:41:09;6.60;;;3.58;;
45618;SDS011;31343;47.520;19.144;2024-03-06T09:43:35;3.65;;;2.83;;
45618;SDS011;31343;47.520;19.144;2024-03-06T09:46:01;6.25;;;3.05;;
45618;SDS011;31343;47.520;19.144;2024-03-06T09:48:29;4.65;;;2.60;;
45618;SDS011;31343;47.520;19.144;2024-03-06T09:50:57;4.53;;;2.85;;
45618;SDS011;31343;47.520;19.144;2024-03-06T09:55:56;5.32;;;2.63;;
45618;SDS011;31343;47.520;19.144;2024-03-06T09:58:23;4.80;;;2.65;;
45618;SDS011;31343;47.520;19.144;2024-03-06T10:00:49;4.43;;;3.10;;
45618;SDS011;31343;47.520;19.144;2024-03-06T10:03:16;8.18;;;2.20;;
45618;SDS011;31343;47.520;19.144;2024-03-06T10:05:42;3.78;;;2.80;;
45618;SDS011;31343;47.520;19.144;2024-03-06T10:08:08;3.75;;;2.58;;
45618;SDS011;31343;47.520;19.144;2024-03-06T10:10:35;3.35;;;2.28;;
45618;SDS011;31343;47.520;19.144;2024-03-06T10:13:01;3.70;;;2.67;;
45618;SDS011;31343;47.520;19.144;2024-03-06T10:15:27;5.28;;;2.58;;
45618;SDS011;31343;47.520;19.144;2024-03-06T10:20:38;4.72;;;2.92;;
45618;SDS011;31343;47.520;19.144;2024-03-06T10:23:05;3.95;;;2.22;;
45618;SDS011;31343;47.520;19.144;2024-03-06T10:25:30;3.72;;;2.35;;
45618;SDS011;31343;47.520;19.144;2024-03-06T10:28:09;3.92;;;2.63;;
45618;SDS011;31343;47.520;19.144;2024-03-06T10:30:39;4.80;;;2.92;;
45618;SDS011;31343;47.520;19.144;2024-03-06T10:33:10;4.93;;;2.28;;
45618;SDS011;31343;47.520;19.144;2024-03-06T10:35:37;3.38;;;2.47;;
45618;SDS011;31343;47.520;19.144;2024-03-06T10:38:06;4.20;;;2.40;;
45618;SDS011;31343;47.520;19.144;2024-03-06T10:40:33;2.88;;;2.58;;
45618;SDS011;31343;47.520;19.144;2024-03-06T10:43:01;4.68;;;2.40;;
45618;SDS011;31343;47.520;19.144;2024-03-06T10:45:39;3.85;;;2.10;;
45618;SDS011;31343;47.520;19.144;2024-03-06T10:48:08;4.70;;;2.35;;
45618;SDS011;31343;47.520;19.144;2024-03-06T10:50:40;3.45;;;2.13;;
45618;SDS011;31343;47.520;19.144;2024-03-06T10:53:13;2.92;;;2.42;;
45618;SDS011;31343;47.520;19.144;2024-03-06T10:55:42;4.00;;;2.40;;
45618;SDS011;31343;47.520;19.144;2024-03-06T10:58:12;3.25;;;1.98;;
45618;SDS011;31343;47.520;19.144;2024-03-06T11:00:42;3.55;;;2.60;;
45618;SDS011;31343;47.520;19.144;2024-03-06T11:03:12;3.97;;;2.25;;
45618;SDS011;31343;47.520;19.144;2024-03-06T11:05:39;3.13;;;1.77;;
45618;SDS011;31343;47.520;19.144;2024-03-06T11:08:07;4.45;;;2.42;;
45618;SDS011;31343;47.520;19.144;2024-03-06T11:10:34;4.22;;;2.67;;
45618;SDS011;31343;47.520;19.144;2024-03-06T11:13:01;3.78;;;2.05;;
45618;SDS011;31343;47.520;19.144;2024-03-06T11:15:28;8.15;;;2.38;;
45618;SDS011;31343;47.520;19.144;2024-03-06T11:17:54;3.55;;;2.08;;
45618;SDS011;31343;47.520;19.144;2024-03-06T11:20:20;3.63;;;1.75;;
45618;SDS011;31343;47.520;19.144;2024-03-06T11:28:16;2.85;;;1.77;;
45618;SDS011;31343;47.520;19.144;2024-03-06T11:30:55;3.50;;;2.40;;
45618;SDS011;31343;47.520;19.144;2024-03-06T11:33:38;2.70;;;1.58;;
45618;SDS011;31343;47.520;19.144;2024-03-06T11:36:40;4.45;;;2.22;;
45618;SDS011;31343;47.520;19.144;2024-03-06T11:38:59;3.83;;;2.13;;
45618;SDS011;31343;47.520;19.144;2024-03-06T11:46:41;3.42;;;2.30;;
45618;SDS011;31343;47.520;19.144;2024-03-06T11:49:29;3.70;;;2.00;;
45618;SDS011;31343;47.520;19.144;2024-03-06T11:52:03;3.92;;;2.15;;
45618;SDS011;31343;47.520;19.144;2024-03-06T11:54:30;3.20;;;1.70;;
45618;SDS011;31343;47.520;19.144;2024-03-06T11:56:57;3.10;;;2.60;;
45618;SDS011;31343;47.520;19.144;2024-03-06T11:59:28;4.38;;;2.13;;
45618;SDS011;31343;47.520;19.144;2024-03-06T12:01:56;3.65;;;2.22;;
45618;SDS011;31343;47.520;19.144;2024-03-06T12:04:23;5.20;;;2.88;;
45618;SDS011;31343;47.520;19.144;2024-03-06T12:06:49;4.43;;;1.88;;
45618;SDS011;31343;47.520;19.144;2024-03-06T12:09:15;4.07;;;2.70;;
45618;SDS011;31343;47.520;19.144;2024-03-06T12:11:41;6.22;;;2.80;;
45618;SDS011;31343;47.520;19.144;2024-03-06T12:14:17;5.35;;;2.65;;
45618;SDS011;31343;47.520;19.144;2024-03-06T12:16:44;3.80;;;2.43;;
45618;SDS011;31343;47.520;19.144;2024-03-06T12:19:20;4.63;;;2.25;;
45618;SDS011;31343;47.520;19.144;2024-03-06T12:21:47;5.53;;;3.20;;
45618;SDS011;31343;47.520;19.144;2024-03-06T12:24:15;5.05;;;2.60;;
45618;SDS011;31343;47.520;19.144;2024-03-06T12:26:43;4.78;;;2.65;;
45618;SDS011;31343;47.520;19.144;2024-03-06T12:29:11;4.30;;;2.47;;
45618;SDS011;31343;47.520;19.144;2024-03-06T12:31:37;4.30;;;2.53;;
45618;SDS011;31343;47.520;19.144;2024-03-06T12:34:04;3.60;;;2.35;;
45618;SDS011;31343;47.520;19.144;2024-03-06T12:36:31;5.63;;;2.53;;
45618;SDS011;31343;47.520;19.144;2024-03-06T12:39:02;3.70;;;2.83;;
45618;SDS011;31343;47.520;19.144;2024-03-06T12:41:28;7.63;;;3.10;;
45618;SDS011;31343;47.520;19.144;2024-03-06T12:43:55;6.25;;;2.67;;
45618;SDS011;31343;47.520;19.144;2024-03-06T12:46:21;7.35;;;3.10;;
45618;SDS011;31343;47.520;19.144;2024-03-06T12:48:47;4.72;;;2.35;;
45618;SDS011;31343;47.520;19.144;2024-03-06T12:51:13;4.97;;;2.75;;
45618;SDS011;31343;47.520;19.144;2024-03-06T12:53:39;2.92;;;1.55;;
45618;SDS011;31343;47.520;19.144;2024-03-06T12:56:06;2.70;;;1.90;;
45618;SDS011;31343;47.520;19.144;2024-03-06T12:58:32;3.28;;;2.25;;
45618;SDS011;31343;47.520;19.144;2024-03-06T13:01:00;6.45;;;2.42;;
45618;SDS011;31343;47.520;19.144;2024-03-06T13:03:26;5.20;;;2.55;;
45618;SDS011;31343;47.520;19.144;2024-03-06T13:05:52;3.25;;;2.17;;
45618;SDS011;31343;47.520;19.144;2024-03-06T13:08:18;4.82;;;2.03;;
45618;SDS011;31343;47.520;19.144;2024-03-06T13:10:44;3.42;;;1.75;;
45618;SDS011;31343;47.520;19.144;2024-03-06T13:13:10;5.18;;;2.63;;
45618;SDS011;31343;47.520;19.144;2024-03-06T13:15:36;4.95;;;2.10;;
45618;SDS011;31343;47.520;19.144;2024-03-06T13:18:02;3.88;;;2.63;;
45618;SDS011;31343;47.520;19.144;2024-03-06T13:20:29;3.38;;;2.70;;
45618;SDS011;31343;47.520;19.144;2024-03-06T13:22:55;3.45;;;2.22;;
45618;SDS011;31343;47.520;19.144;2024-03-06T13:25:20;4.00;;;2.47;;
45618;SDS011;31343;47.520;19.144;2024-03-06T13:27:46;4.15;;;2.55;;
45618;SDS011;31343;47.520;19.144;2024-03-06T13:30:12;7.03;;;2.38;;
45618;SDS011;31343;47.520;19.144;2024-03-06T13:32:38;3.10;;;1.90;;
45618;SDS011;31343;47.520;19.144;2024-03-06T13:35:04;3.75;;;2.33;;
45618;SDS011;31343;47.520;19.144;2024-03-06T13:37:41;7.25;;;2.60;;
45618;SDS011;31343;47.520;19.144;2024-03-06T13:40:07;4.00;;;2.58;;
45618;SDS011;31343;47.520;19.144;2024-03-06T13:42:35;2.65;;;1.73;;
45618;SDS011;31343;47.520;19.144;2024-03-06T13:45:02;2.67;;;1.77;;
45618;SDS011;31343;47.520;19.144;2024-03-06T13:47:28;4.32;;;1.77;;
45618;SDS011;31343;47.520;19.144;2024-03-06T13:49:56;2.25;;;1.40;;
45618;SDS011;31343;47.520;19.144;2024-03-06T13:52:21;3.13;;;2.15;;
45618;SDS011;31343;47.520;19.144;2024-03-06T13:54:48;1.40;;;1.10;;
45618;SDS011;31343;47.520;19.144;2024-03-06T13:57:14;3.08;;;1.73;;
45618;SDS011;31343;47.520;19.144;2024-03-06T13:59:40;4.70;;;2.20;;
45618;SDS011;31343;47.520;19.144;2024-03-06T14:02:07;2.17;;;1.25;;
45618;SDS011;31343;47.520;19.144;2024-03-06T14:04:33;2.95;;;1.60;;
45618;SDS011;31343;47.520;19.144;2024-03-06T14:06:59;2.38;;;1.25;;
45618;SDS011;31343;47.520;19.144;2024-03-06T14:09:25;1.77;;;1.33;;
45618;SDS011;31343;47.520;19.144;2024-03-06T14:11:52;2.00;;;1.48;;
45618;SDS011;31343;47.520;19.144;2024-03-06T14:14:18;4.30;;;1.88;;
45618;SDS011;31343;47.520;19.144;2024-03-06T14:16:45;2.08;;;0.90;;
45618;SDS011;31343;47.520;19.144;2024-03-06T14:19:11;1.08;;;0.75;;
45618;SDS011;31343;47.520;19.144;2024-03-06T14:21:37;0.65;;;0.57;;
45618;SDS011;31343;47.520;19.144;2024-03-06T14:24:03;0.95;;;0.88;;
45618;SDS011;31343;47.520;19.144;2024-03-06T14:26:33;1.60;;;1.17;;
45618;SDS011;31343;47.520;19.144;2024-03-06T14:28:59;1.65;;;0.98;;
45618;SDS011;31343;47.520;19.144;2024-03-06T14:31:25;1.23;;;0.77;;
45618;SDS011;31343;47.520;19.144;2024-03-06T14:33:51;4.28;;;1.00;;
45618;SDS011;31343;47.520;19.144;2024-03-06T14:36:17;0.85;;;0.75;;
45618;SDS011;31343;47.520;19.144;2024-03-06T14:38:43;0.65;;;0.57;;
45618;SDS011;31343;47.520;19.144;2024-03-06T14:41:12;2.03;;;1.00;;
45618;SDS011;31343;47.520;19.144;2024-03-06T14:43:38;1.52;;;1.17;;